Arnold, Pennsylvania
Current Conditions -  °F | °C
As of 10:53 PM on Friday 31 Oct 2014 (Local Time) from KAGC Reporting Station
Light Rain Light Rain  
Wind Chill: 38°   Ceiling: 2400
Heat Index: 41°   Visibility: 1mi
Dew Point: 38°   Wind: 5mph
Humidity: 89%   Direction: 340°NNW
Pressure: 29.87"   Gusts: NA
Location:  40.5657°N, 79.707°W
Report Text: KAGC 010253Z 34004KT 1SM R28/P6000FT -RA BR SCT005 BKN024 OVC029 05/03 A2987 RMK AO2 SLP126 P0002 60009 T00500033 50001
Loading
Personal Weather Stations






























Interactive Weather Map
Tropical Storm Tracking
New forecast layout! Learn more

10-Day Weather Forecast

Advertisements
Track Severe Weather on mobile